createdAt,value
2019-04-05T00:04:05.751Z,99833.92
2019-04-05T00:09:11.831Z,99838.32
2019-04-05T00:14:19.837Z,99834.89
2019-04-05T00:19:31.824Z,99835.03
2019-04-05T00:24:39.645Z,99832.75
2019-04-05T00:29:45.495Z,99829.77
2019-04-05T00:34:56.870Z,99826.05
2019-04-05T00:40:26.340Z,99831.38
2019-04-05T00:45:35.517Z,99829.09
2019-04-05T00:50:41.303Z,99834.36
2019-04-05T00:55:48.653Z,99834.52
2019-04-05T01:00:54.483Z,99829.58
2019-04-05T01:06:00.301Z,99819.47
2019-04-05T01:11:06.257Z,99818.03
2019-04-05T01:16:13.653Z,99824.47
2019-04-05T01:21:22.502Z,99818.05
2019-04-05T01:26:29.485Z,99825.73
2019-04-05T01:31:35.371Z,99825.94
2019-04-05T01:36:41.342Z,99828.92
2019-04-05T01:41:47.879Z,99822.91
2019-04-05T01:46:53.791Z,99827.89
2019-04-05T01:52:00.913Z,99827.35
2019-04-05T01:57:06.683Z,99823.84
2019-04-05T02:02:12.474Z,99820.72
2019-04-05T02:07:18.205Z,99821.20
2019-04-05T02:12:23.972Z,99824.08
2019-04-05T02:17:29.730Z,99822.24
2019-04-05T02:22:35.500Z,99825.29
2019-04-05T02:27:41.288Z,99817.80
2019-04-05T02:32:47.152Z,99806.22
2019-04-05T02:37:53.018Z,99801.98
2019-04-05T02:43:01.253Z,99808.00
2019-04-05T02:48:09.944Z,99792.29
2019-04-05T02:53:18.902Z,99789.58
2019-04-05T02:58:25.268Z,99783.39
2019-04-05T03:03:31.274Z,99782.91
2019-04-05T03:08:39.449Z,99778.88
2019-04-05T03:13:48.106Z,99788.63
2019-04-05T03:18:59.654Z,99774.49
2019-04-05T03:24:06.232Z,99774.94
2019-04-05T03:29:12.831Z,99769.16
2019-04-05T03:34:18.733Z,99768.26
2019-04-05T03:39:25.174Z,99715.30
2019-04-05T03:44:31.081Z,99680.92
2019-04-05T03:49:36.978Z,99654.67
2019-04-05T03:54:42.851Z,99631.15
2019-04-05T03:59:48.634Z,99579.52
2019-04-05T04:04:55.066Z,99506.13
2019-04-05T04:10:00.924Z,99467.45
2019-04-05T04:15:14.615Z,99424.70
2019-04-05T04:20:38.560Z,99373.75
2019-04-05T04:25:44.727Z,99336.91
2019-04-05T04:30:50.845Z,99321.82
2019-04-05T04:35:56.700Z,99310.14
2019-04-05T04:41:03.211Z,99278.67
2019-04-05T04:46:08.882Z,99281.57
2019-04-05T04:51:14.798Z,99313.78
2019-04-05T04:56:20.884Z,99348.23
2019-04-05T05:01:26.690Z,99385.06
2019-04-05T05:06:32.582Z,99403.80
2019-04-05T05:11:38.457Z,99458.47
2019-04-05T05:16:45.695Z,99490.27
2019-04-05T05:21:51.563Z,99532.20
2019-04-05T05:26:57.839Z,99554.45
2019-04-05T05:32:04.190Z,99581.20
2019-04-05T05:37:09.997Z,99610.06
2019-04-05T05:42:15.954Z,99628.46
2019-04-05T05:47:21.931Z,99644.50
2019-04-05T05:52:27.974Z,99659.10
2019-04-05T05:57:34.047Z,99681.64
2019-04-05T06:02:40.365Z,99694.93
2019-04-05T06:07:46.621Z,99704.66
2019-04-05T06:12:52.569Z,99729.55
2019-04-05T06:18:04.683Z,99752.53
2019-04-05T06:23:06.149Z,99737.07
2019-04-05T06:28:12.053Z,99784.09
2019-04-05T06:33:30.696Z,99798.50
2019-04-05T06:38:25.765Z,99807.25
2019-04-05T06:43:31.655Z,99804.57
2019-04-05T06:48:37.544Z,99822.31
2019-04-05T06:53:43.522Z,99830.55
2019-04-05T06:58:49.382Z,99860.95
2019-04-05T07:03:55.443Z,99868.39
2019-04-05T07:09:01.852Z,99875.16
2019-04-05T07:14:08.367Z,99893.06
2019-04-05T07:19:14.509Z,99907.95
2019-04-05T07:24:20.590Z,99912.97
2019-04-05T07:29:26.468Z,99915.03
2019-04-05T07:34:32.326Z,99934.38
2019-04-05T07:39:38.198Z,99945.06
2019-04-05T07:44:44.113Z,99953.30
2019-04-05T07:49:50.557Z,99966.28
2019-04-05T07:54:56.625Z,99968.15
2019-04-05T08:00:02.503Z,99975.69
2019-04-05T08:05:09.033Z,99995.16
2019-04-05T08:10:16.261Z,99999.50
2019-04-05T08:15:22.126Z,100013.08
2019-04-05T08:20:28.147Z,100013.83
2019-04-05T08:25:34.008Z,100026.55
2019-04-05T08:30:39.946Z,100029.55
2019-04-05T08:35:45.965Z,100038.36
2019-04-05T08:40:51.850Z,100053.89
2019-04-05T08:45:57.916Z,100042.78
2019-04-05T08:51:03.887Z,100046.23
2019-04-05T08:56:09.643Z,100039.12
2019-04-05T09:01:15.617Z,100034.80
2019-04-05T09:06:22.623Z,100034.18
2019-04-05T09:11:28.521Z,100027.95
2019-04-05T09:16:34.504Z,100035.75
2019-04-05T09:21:40.774Z,100042.62
2019-04-05T09:26:46.822Z,100048.66
2019-04-05T09:31:52.684Z,100047.56
2019-04-05T09:36:58.558Z,100056.38
2019-04-05T09:42:04.426Z,100043.76
2019-04-05T09:47:10.624Z,100044.66
2019-04-05T09:52:16.594Z,100051.03
2019-04-05T09:57:22.346Z,100052.67
2019-04-05T10:02:28.109Z,100063.05
2019-04-05T10:07:33.900Z,100061.91
2019-04-05T10:12:39.907Z,100061.16
2019-04-05T10:17:45.843Z,100067.50
2019-04-05T10:22:51.732Z,100068.42
2019-04-05T10:27:57.726Z,100065.84
2019-04-05T10:33:04.030Z,100076.28
2019-04-05T10:38:10.032Z,100077.05
2019-04-05T10:43:16.143Z,100087.58
2019-04-05T10:48:22.126Z,100077.33
2019-04-05T10:53:28.095Z,100082.39
2019-04-05T10:58:34.101Z,100082.42
2019-04-05T11:03:39.882Z,100086.25
2019-04-05T11:08:45.657Z,100097.53
2019-04-05T11:13:51.372Z,100095.25
2019-04-05T11:18:57.194Z,100102.17
2019-04-05T11:24:03.014Z,100110.41
2019-04-05T11:29:08.783Z,100112.50
2019-04-05T11:34:14.841Z,100109.20
2019-04-05T11:39:21.209Z,100105.63
2019-04-05T11:44:28.433Z,100107.86
2019-04-05T11:49:37.255Z,100106.80
2019-04-05T11:54:43.803Z,100109.06
2019-04-05T11:59:50.623Z,100105.22
2019-04-05T12:04:58.156Z,100112.70
2019-04-05T12:10:04.824Z,100094.87
2019-04-05T12:15:11.296Z,100102.28
2019-04-05T12:20:17.868Z,100099.41
2019-04-05T12:25:23.884Z,100105.45
2019-04-05T12:30:29.764Z,100107.50
2019-04-05T12:35:37.701Z,100104.26
2019-04-05T12:40:44.223Z,100110.27
2019-04-05T12:45:50.092Z,100094.20
2019-04-05T12:51:01.476Z,100088.59
2019-04-05T12:56:06.762Z,100090.67
2019-04-05T13:01:12.950Z,100091.84
2019-04-05T13:06:19.809Z,100092.85
2019-04-05T13:11:27.034Z,100093.89
2019-04-05T13:16:33.167Z,100105.11
2019-04-05T13:21:39.015Z,100099.60
2019-04-05T13:26:44.912Z,100102.13
2019-04-05T13:31:50.889Z,100099.33
2019-04-05T13:36:56.735Z,100102.14
2019-04-05T13:42:02.704Z,100096.66
2019-04-05T13:47:09.139Z,100089.16
2019-04-05T13:52:15.025Z,100096.66
2019-04-05T13:57:20.766Z,100093.88
2019-04-05T14:02:26.739Z,100085.00
2019-04-05T14:07:34.244Z,100099.98
2019-04-05T14:12:41.004Z,100090.66
2019-04-05T14:17:49.408Z,100094.19
2019-04-05T14:22:55.439Z,100092.04
2019-04-05T14:28:04.287Z,100092.63
2019-04-05T14:33:10.143Z,100099.44
2019-04-05T14:38:16.266Z,100095.64
2019-04-05T14:43:22.174Z,100097.23
2019-04-05T14:48:31.683Z,100092.30
2019-04-05T14:53:36.674Z,100094.00
2019-04-05T14:58:42.474Z,100094.00
2019-04-05T15:03:48.828Z,100099.16
2019-04-05T15:08:54.622Z,100095.04
2019-04-05T15:14:02.228Z,100092.29
2019-04-05T15:19:08.399Z,100094.52
2019-04-05T15:24:16.807Z,100098.08
2019-04-05T15:29:23.660Z,100098.34
2019-04-05T15:34:30.589Z,100089.89
2019-04-05T15:39:36.478Z,100093.43
2019-04-05T15:44:42.699Z,100095.63
2019-04-05T15:49:51.548Z,100110.35
2019-04-05T15:55:08.737Z,100099.17
2019-04-05T16:00:21.526Z,100103.11
2019-04-05T16:05:27.351Z,100105.17
2019-04-05T16:10:33.531Z,100104.34
2019-04-05T16:15:39.407Z,100099.13
2019-04-05T16:20:45.398Z,100105.16
2019-04-05T16:25:51.350Z,100100.78
2019-04-05T16:30:57.312Z,100115.77
2019-04-05T16:36:03.345Z,100115.44
2019-04-05T16:41:09.528Z,100116.45
2019-04-05T16:46:15.947Z,100125.50
2019-04-05T16:51:22.239Z,100123.75
2019-04-05T16:56:28.616Z,100135.39
2019-04-05T17:01:35.511Z,100134.11
2019-04-05T17:06:41.696Z,100136.88
2019-04-05T17:11:47.561Z,100138.97
2019-04-05T17:16:53.542Z,100144.72
2019-04-05T17:21:59.710Z,100137.36
2019-04-05T17:27:05.584Z,100144.25
2019-04-05T17:32:11.444Z,100144.77
2019-04-05T17:37:18.441Z,100149.03
2019-04-05T17:42:24.425Z,100152.48
2019-04-05T17:47:30.405Z,100153.00
2019-04-05T17:52:36.371Z,100155.33
2019-04-05T17:57:43.425Z,100163.94
2019-04-05T18:02:49.543Z,100173.08
2019-04-05T18:07:55.725Z,100188.20
2019-04-05T18:13:01.616Z,100192.59
2019-04-05T18:18:07.612Z,100194.08
2019-04-05T18:23:24.372Z,100200.26
2019-04-05T18:28:21.188Z,100201.95
2019-04-05T18:33:27.137Z,100196.80
2019-04-05T18:38:33.147Z,100202.61
2019-04-05T18:43:39.169Z,100203.63
2019-04-05T18:48:45.107Z,100207.06
2019-04-05T18:53:52.674Z,100203.98
2019-04-05T18:58:58.776Z,100207.88
2019-04-05T19:04:05.832Z,100209.34
2019-04-05T19:09:12.224Z,100212.05
2019-04-05T19:14:18.414Z,100220.95
2019-04-05T19:19:24.450Z,100224.92
2019-04-05T19:24:30.717Z,100229.80
2019-04-05T19:29:36.640Z,100225.70
2019-04-05T19:50:06.560Z,100259.41
2019-04-05T19:55:12.637Z,100266.03
2019-04-05T20:00:19.526Z,100281.45
2019-04-05T20:05:25.730Z,100271.04
2019-04-05T20:10:31.998Z,100275.53
2019-04-05T20:15:37.841Z,100276.97
2019-04-05T20:20:43.725Z,100278.27
2019-04-05T20:25:49.513Z,100284.54
2019-04-05T20:30:55.364Z,100282.75
2019-04-05T20:36:01.222Z,100278.47
2019-04-05T20:41:07.082Z,100268.17
2019-04-05T20:46:13.244Z,100263.39
2019-04-05T20:51:19.111Z,100261.98
2019-04-05T20:56:24.906Z,100258.55
2019-04-05T21:01:30.692Z,100257.34
2019-04-05T21:06:36.466Z,100258.30
2019-04-05T21:11:42.261Z,100256.52
2019-04-05T21:16:48.075Z,100257.23
2019-04-05T21:21:53.864Z,100266.73
2019-04-05T21:26:59.654Z,100274.98
2019-04-05T21:32:05.427Z,100274.70
2019-04-05T21:37:11.205Z,100273.96
2019-04-05T21:42:18.686Z,100279.47
2019-04-05T21:47:24.481Z,100270.56
2019-04-05T21:52:30.320Z,100272.13
2019-04-05T21:57:37.348Z,100255.00
2019-04-05T22:02:43.472Z,100248.39
2019-04-05T22:07:51.453Z,100248.61
2019-04-05T22:12:56.899Z,100245.21
2019-04-05T22:18:02.716Z,100239.84
2019-04-05T22:23:08.469Z,100244.33
2019-04-05T22:28:14.263Z,100242.16
2019-04-05T22:33:19.957Z,100237.34
2019-04-05T22:38:25.804Z,100224.03
2019-04-05T22:43:31.603Z,100226.09
2019-04-05T22:48:37.394Z,100220.73
2019-04-05T22:53:43.000Z,100226.64
2019-04-05T22:58:48.779Z,100217.02
2019-04-05T23:03:54.689Z,100218.36
2019-04-05T23:09:00.480Z,100220.66
2019-04-05T23:14:07.867Z,100218.59
2019-04-05T23:19:13.653Z,100212.92
2019-04-05T23:24:19.478Z,100207.71
2019-04-05T23:29:25.178Z,100217.75
2019-04-05T23:34:30.979Z,100225.61
2019-04-05T23:39:36.832Z,100227.98
2019-04-05T23:44:42.857Z,100232.95
2019-04-05T23:49:48.779Z,100232.83
2019-04-05T23:54:54.750Z,100241.00
